sensor_id;sensor_type;location;lat;lon;timestamp;pressure;altitude;pressure_sealevel;temperature;humidity
48862;BME280;34681;49.188;-0.374;2023-07-16T00:00:52;100856.09;;;22.84;47.26
48862;BME280;34681;49.188;-0.374;2023-07-16T00:03:17;100859.09;;;22.82;47.34
48862;BME280;34681;49.188;-0.374;2023-07-16T00:05:42;100865.19;;;22.73;47.24
48862;BME280;34681;49.188;-0.374;2023-07-16T00:08:08;100863.28;;;22.66;47.60
48862;BME280;34681;49.188;-0.374;2023-07-16T00:10:36;100862.34;;;22.79;47.57
48862;BME280;34681;49.188;-0.374;2023-07-16T00:13:03;100869.59;;;22.93;47.26
48862;BME280;34681;49.188;-0.374;2023-07-16T00:15:29;100862.63;;;22.71;47.69
48862;BME280;34681;49.188;-0.374;2023-07-16T00:17:54;100865.22;;;22.66;47.84
48862;BME280;34681;49.188;-0.374;2023-07-16T00:20:20;100866.66;;;22.75;47.93
48862;BME280;34681;49.188;-0.374;2023-07-16T00:22:45;100871.00;;;22.71;48.09
48862;BME280;34681;49.188;-0.374;2023-07-16T00:25:11;100871.06;;;22.58;47.88
48862;BME280;34681;49.188;-0.374;2023-07-16T00:27:36;100869.44;;;22.43;48.70
48862;BME280;34681;49.188;-0.374;2023-07-16T00:30:02;100870.69;;;22.48;48.67
48862;BME280;34681;49.188;-0.374;2023-07-16T00:32:28;100875.41;;;22.47;48.88
48862;BME280;34681;49.188;-0.374;2023-07-16T00:34:53;100872.84;;;22.46;49.01
48862;BME280;34681;49.188;-0.374;2023-07-16T00:37:19;100883.88;;;22.21;49.25
48862;BME280;34681;49.188;-0.374;2023-07-16T00:39:44;100879.16;;;22.28;49.63
48862;BME280;34681;49.188;-0.374;2023-07-16T00:42:09;100877.03;;;22.17;49.36
48862;BME280;34681;49.188;-0.374;2023-07-16T00:44:35;100884.09;;;22.06;49.64
48862;BME280;34681;49.188;-0.374;2023-07-16T00:47:00;100884.75;;;22.14;49.58
48862;BME280;34681;49.188;-0.374;2023-07-16T00:49:26;100883.47;;;22.04;49.99
48862;BME280;34681;49.188;-0.374;2023-07-16T00:51:52;100879.19;;;22.08;50.02
48862;BME280;34681;49.188;-0.374;2023-07-16T00:54:19;100893.72;;;22.23;50.07
48862;BME280;34681;49.188;-0.374;2023-07-16T00:56:44;100885.81;;;22.20;49.81
48862;BME280;34681;49.188;-0.374;2023-07-16T00:59:10;100884.53;;;22.16;49.97
48862;BME280;34681;49.188;-0.374;2023-07-16T01:01:36;100879.78;;;22.23;50.13
48862;BME280;34681;49.188;-0.374;2023-07-16T01:04:02;100870.56;;;22.23;50.14
48862;BME280;34681;49.188;-0.374;2023-07-16T01:06:37;100874.47;;;22.08;50.55
48862;BME280;34681;49.188;-0.374;2023-07-16T01:09:11;100876.81;;;22.05;50.74
48862;BME280;34681;49.188;-0.374;2023-07-16T01:11:41;100876.84;;;21.98;50.70
48862;BME280;34681;49.188;-0.374;2023-07-16T01:14:07;100878.56;;;21.93;50.70
48862;BME280;34681;49.188;-0.374;2023-07-16T01:16:33;100881.56;;;21.91;51.02
48862;BME280;34681;49.188;-0.374;2023-07-16T01:18:58;100877.50;;;21.94;51.10
48862;BME280;34681;49.188;-0.374;2023-07-16T01:21:27;100883.03;;;22.00;51.24
48862;BME280;34681;49.188;-0.374;2023-07-16T01:27:16;100881.31;;;22.06;51.41
48862;BME280;34681;49.188;-0.374;2023-07-16T01:29:55;100878.28;;;22.27;50.86
48862;BME280;34681;49.188;-0.374;2023-07-16T01:32:23;100877.63;;;22.25;50.62
48862;BME280;34681;49.188;-0.374;2023-07-16T01:34:52;100874.66;;;22.20;50.95
48862;BME280;34681;49.188;-0.374;2023-07-16T01:37:18;100876.97;;;22.30;50.69
48862;BME280;34681;49.188;-0.374;2023-07-16T01:39:43;100875.50;;;22.27;50.64
48862;BME280;34681;49.188;-0.374;2023-07-16T01:42:08;100880.41;;;22.25;51.07
48862;BME280;34681;49.188;-0.374;2023-07-16T01:44:34;100877.31;;;22.53;50.61
48862;BME280;34681;49.188;-0.374;2023-07-16T01:47:11;100865.66;;;22.63;50.41
48862;BME280;34681;49.188;-0.374;2023-07-16T01:49:38;100866.28;;;22.65;50.19
48862;BME280;34681;49.188;-0.374;2023-07-16T01:52:06;100867.16;;;22.65;50.43
48862;BME280;34681;49.188;-0.374;2023-07-16T01:54:31;100869.78;;;22.60;50.55
48862;BME280;34681;49.188;-0.374;2023-07-16T01:56:57;100870.63;;;22.61;50.67
48862;BME280;34681;49.188;-0.374;2023-07-16T01:59:22;100875.09;;;22.68;50.54
48862;BME280;34681;49.188;-0.374;2023-07-16T02:01:47;100878.88;;;22.81;50.36
48862;BME280;34681;49.188;-0.374;2023-07-16T02:04:13;100878.47;;;22.77;50.26
48862;BME280;34681;49.188;-0.374;2023-07-16T02:06:38;100871.19;;;22.76;50.23
48862;BME280;34681;49.188;-0.374;2023-07-16T02:09:03;100877.81;;;22.75;50.22
48862;BME280;34681;49.188;-0.374;2023-07-16T02:11:29;100875.22;;;22.87;50.12
48862;BME280;34681;49.188;-0.374;2023-07-16T02:13:54;100883.13;;;22.83;49.91
48862;BME280;34681;49.188;-0.374;2023-07-16T02:16:19;100880.84;;;22.74;50.25
48862;BME280;34681;49.188;-0.374;2023-07-16T02:18:45;100885.75;;;22.78;50.35
48862;BME280;34681;49.188;-0.374;2023-07-16T02:21:10;100880.56;;;22.82;50.33
48862;BME280;34681;49.188;-0.374;2023-07-16T02:23:36;100879.50;;;22.83;50.05
48862;BME280;34681;49.188;-0.374;2023-07-16T02:26:01;100869.41;;;22.82;50.05
48862;BME280;34681;49.188;-0.374;2023-07-16T02:28:26;100879.28;;;22.84;50.07
48862;BME280;34681;49.188;-0.374;2023-07-16T02:30:52;100877.53;;;22.90;50.27
48862;BME280;34681;49.188;-0.374;2023-07-16T02:33:17;100882.63;;;22.99;49.91
48862;BME280;34681;49.188;-0.374;2023-07-16T02:35:49;100875.63;;;22.90;49.83
48862;BME280;34681;49.188;-0.374;2023-07-16T02:38:16;100873.06;;;22.89;50.12
48862;BME280;34681;49.188;-0.374;2023-07-16T02:40:45;100894.03;;;22.98;50.19
48862;BME280;34681;49.188;-0.374;2023-07-16T02:43:11;100883.97;;;22.84;50.38
48862;BME280;34681;49.188;-0.374;2023-07-16T02:45:37;100886.16;;;22.82;50.34
48862;BME280;34681;49.188;-0.374;2023-07-16T02:48:04;100888.72;;;22.83;50.36
48862;BME280;34681;49.188;-0.374;2023-07-16T02:50:33;100874.75;;;22.90;50.40
48862;BME280;34681;49.188;-0.374;2023-07-16T02:52:58;100884.44;;;22.87;50.20
48862;BME280;34681;49.188;-0.374;2023-07-16T02:55:24;100879.31;;;22.78;50.33
48862;BME280;34681;49.188;-0.374;2023-07-16T02:57:49;100879.94;;;22.80;50.46
48862;BME280;34681;49.188;-0.374;2023-07-16T03:00:15;100880.59;;;22.75;50.56
48862;BME280;34681;49.188;-0.374;2023-07-16T03:02:41;100876.31;;;22.79;50.55
48862;BME280;34681;49.188;-0.374;2023-07-16T03:05:07;100880.34;;;22.90;50.49
48862;BME280;34681;49.188;-0.374;2023-07-16T03:07:32;100890.41;;;22.91;50.24
48862;BME280;34681;49.188;-0.374;2023-07-16T03:09:58;100887.84;;;22.89;50.25
48862;BME280;34681;49.188;-0.374;2023-07-16T03:12:23;100889.78;;;22.82;50.48
48862;BME280;34681;49.188;-0.374;2023-07-16T03:14:50;100890.72;;;22.76;50.31
48862;BME280;34681;49.188;-0.374;2023-07-16T03:17:16;100888.56;;;22.71;50.91
48862;BME280;34681;49.188;-0.374;2023-07-16T03:19:41;100891.59;;;22.70;50.82
48862;BME280;34681;49.188;-0.374;2023-07-16T03:22:06;100890.13;;;22.67;50.73
48862;BME280;34681;49.188;-0.374;2023-07-16T03:24:32;100893.09;;;22.66;50.92
48862;BME280;34681;49.188;-0.374;2023-07-16T03:26:57;100894.34;;;22.77;50.75
48862;BME280;34681;49.188;-0.374;2023-07-16T03:29:22;100894.34;;;22.77;50.49
48862;BME280;34681;49.188;-0.374;2023-07-16T03:31:48;100893.25;;;22.84;50.66
48862;BME280;34681;49.188;-0.374;2023-07-16T03:34:13;100886.59;;;22.85;50.67
48862;BME280;34681;49.188;-0.374;2023-07-16T03:36:38;100905.28;;;22.85;50.92
48862;BME280;34681;49.188;-0.374;2023-07-16T03:39:04;100903.13;;;22.87;50.53
48862;BME280;34681;49.188;-0.374;2023-07-16T03:41:29;100909.69;;;22.99;50.41
48862;BME280;34681;49.188;-0.374;2023-07-16T03:43:54;100914.28;;;22.87;50.65
48862;BME280;34681;49.188;-0.374;2023-07-16T03:46:20;100904.44;;;22.71;50.80
48862;BME280;34681;49.188;-0.374;2023-07-16T03:48:45;100905.94;;;22.74;50.97
48862;BME280;34681;49.188;-0.374;2023-07-16T03:51:11;100915.63;;;22.71;50.24
48862;BME280;34681;49.188;-0.374;2023-07-16T03:53:36;100923.16;;;22.57;51.00
48862;BME280;34681;49.188;-0.374;2023-07-16T03:56:01;100922.66;;;22.74;51.08
48862;BME280;34681;49.188;-0.374;2023-07-16T03:58:27;100920.59;;;22.62;50.82
48862;BME280;34681;49.188;-0.374;2023-07-16T04:00:54;100925.63;;;22.34;51.27
48862;BME280;34681;49.188;-0.374;2023-07-16T04:03:19;100930.56;;;22.38;51.78
48862;BME280;34681;49.188;-0.374;2023-07-16T04:05:45;100921.94;;;22.47;51.33
48862;BME280;34681;49.188;-0.374;2023-07-16T04:08:10;100929.19;;;22.54;51.46
48862;BME280;34681;49.188;-0.374;2023-07-16T04:10:35;100924.47;;;22.55;51.46
48862;BME280;34681;49.188;-0.374;2023-07-16T04:13:01;100926.66;;;22.53;51.17
48862;BME280;34681;49.188;-0.374;2023-07-16T04:15:26;100924.94;;;22.52;51.65
48862;BME280;34681;49.188;-0.374;2023-07-16T04:17:51;100938.25;;;22.43;51.31
48862;BME280;34681;49.188;-0.374;2023-07-16T04:20:17;100936.75;;;22.40;51.76
48862;BME280;34681;49.188;-0.374;2023-07-16T04:22:42;100945.56;;;22.44;51.81
48862;BME280;34681;49.188;-0.374;2023-07-16T04:25:08;100946.56;;;22.50;51.53
48862;BME280;34681;49.188;-0.374;2023-07-16T04:27:33;100944.41;;;22.58;51.42
48862;BME280;34681;49.188;-0.374;2023-07-16T04:29:58;100946.38;;;22.51;51.18
48862;BME280;34681;49.188;-0.374;2023-07-16T04:32:24;100949.59;;;22.41;51.74
48862;BME280;34681;49.188;-0.374;2023-07-16T04:34:49;100948.75;;;22.41;51.93
48862;BME280;34681;49.188;-0.374;2023-07-16T04:37:14;100958.19;;;22.47;51.86
48862;BME280;34681;49.188;-0.374;2023-07-16T04:39:40;100957.69;;;22.63;51.56
48862;BME280;34681;49.188;-0.374;2023-07-16T04:42:05;100963.63;;;22.80;50.79
48862;BME280;34681;49.188;-0.374;2023-07-16T04:44:30;100961.31;;;22.70;51.23
48862;BME280;34681;49.188;-0.374;2023-07-16T04:46:56;100976.75;;;22.66;51.25
48862;BME280;34681;49.188;-0.374;2023-07-16T04:49:21;100966.88;;;22.77;51.28
48862;BME280;34681;49.188;-0.374;2023-07-16T04:51:46;100972.69;;;22.68;51.19
48862;BME280;34681;49.188;-0.374;2023-07-16T04:54:12;100975.91;;;22.65;51.51
48862;BME280;34681;49.188;-0.374;2023-07-16T04:56:37;100980.22;;;22.61;51.45
48862;BME280;34681;49.188;-0.374;2023-07-16T04:59:03;100980.25;;;22.48;51.32
48862;BME280;34681;49.188;-0.374;2023-07-16T05:01:28;100980.50;;;22.40;51.72
48862;BME280;34681;49.188;-0.374;2023-07-16T05:03:53;100986.06;;;22.40;52.01
48862;BME280;34681;49.188;-0.374;2023-07-16T05:06:19;100991.19;;;22.50;52.01
48862;BME280;34681;49.188;-0.374;2023-07-16T05:08:44;100993.78;;;22.51;51.99
48862;BME280;34681;49.188;-0.374;2023-07-16T05:11:09;100993.97;;;22.50;51.84
48862;BME280;34681;49.188;-0.374;2023-07-16T05:13:35;100998.47;;;22.57;51.92
48862;BME280;34681;49.188;-0.374;2023-07-16T05:16:00;100992.47;;;22.60;51.95
48862;BME280;34681;49.188;-0.374;2023-07-16T05:18:25;100992.03;;;22.50;52.05
48862;BME280;34681;49.188;-0.374;2023-07-16T05:20:51;101002.31;;;22.56;52.05
48862;BME280;34681;49.188;-0.374;2023-07-16T05:23:16;101000.41;;;22.57;52.16
48862;BME280;34681;49.188;-0.374;2023-07-16T05:25:51;101009.16;;;22.67;51.69
48862;BME280;34681;49.188;-0.374;2023-07-16T05:28:19;101007.25;;;22.61;51.95
48862;BME280;34681;49.188;-0.374;2023-07-16T05:30:44;101014.56;;;22.55;51.79
48862;BME280;34681;49.188;-0.374;2023-07-16T05:33:10;101017.78;;;22.52;52.30
48862;BME280;34681;49.188;-0.374;2023-07-16T05:35:36;101025.69;;;22.62;52.17
48862;BME280;34681;49.188;-0.374;2023-07-16T05:38:02;101018.81;;;22.71;51.98
48862;BME280;34681;49.188;-0.374;2023-07-16T05:40:27;101025.63;;;22.75;51.65
48862;BME280;34681;49.188;-0.374;2023-07-16T05:42:52;101033.78;;;22.90;51.59
48862;BME280;34681;49.188;-0.374;2023-07-16T05:45:18;101028.81;;;22.92;51.18
48862;BME280;34681;49.188;-0.374;2023-07-16T05:47:43;101030.34;;;22.81;51.39
48862;BME280;34681;49.188;-0.374;2023-07-16T05:50:09;101036.59;;;22.77;51.63
48862;BME280;34681;49.188;-0.374;2023-07-16T05:52:34;101034.84;;;22.89;51.31
48862;BME280;34681;49.188;-0.374;2023-07-16T05:54:59;101044.75;;;22.85;51.22
48862;BME280;34681;49.188;-0.374;2023-07-16T05:57:25;101050.09;;;22.80;51.80
48862;BME280;34681;49.188;-0.374;2023-07-16T05:59:50;101054.97;;;23.04;51.31
48862;BME280;34681;49.188;-0.374;2023-07-16T06:02:15;101060.16;;;23.01;51.71
48862;BME280;34681;49.188;-0.374;2023-07-16T06:04:41;101067.47;;;22.82;52.45
48862;BME280;34681;49.188;-0.374;2023-07-16T06:07:06;101060.81;;;22.83;53.02
48862;BME280;34681;49.188;-0.374;2023-07-16T06:09:32;101068.28;;;23.02;52.45
48862;BME280;34681;49.188;-0.374;2023-07-16T06:11:57;101059.94;;;22.82;52.97
48862;BME280;34681;49.188;-0.374;2023-07-16T06:14:23;101073.03;;;22.82;53.56
48862;BME280;34681;49.188;-0.374;2023-07-16T06:16:48;101072.63;;;22.78;53.69
48862;BME280;34681;49.188;-0.374;2023-07-16T06:19:14;101069.41;;;22.81;53.90
48862;BME280;34681;49.188;-0.374;2023-07-16T06:21:39;101076.06;;;22.74;54.32
48862;BME280;34681;49.188;-0.374;2023-07-16T06:24:05;101083.56;;;22.73;54.35
48862;BME280;34681;49.188;-0.374;2023-07-16T06:26:30;101091.31;;;22.78;54.48
48862;BME280;34681;49.188;-0.374;2023-07-16T06:28:55;101094.72;;;22.80;54.52
48862;BME280;34681;49.188;-0.374;2023-07-16T06:31:21;101092.56;;;22.75;55.51
48862;BME280;34681;49.188;-0.374;2023-07-16T06:33:46;101097.97;;;22.70;55.30
48862;BME280;34681;49.188;-0.374;2023-07-16T06:36:12;101094.09;;;22.71;55.52
48862;BME280;34681;49.188;-0.374;2023-07-16T06:38:37;101101.59;;;22.90;54.94
48862;BME280;34681;49.188;-0.374;2023-07-16T06:41:03;101118.94;;;22.99;54.58
48862;BME280;34681;49.188;-0.374;2023-07-16T06:43:28;101110.63;;;22.92;54.71
48862;BME280;34681;49.188;-0.374;2023-07-16T06:45:54;101114.66;;;22.96;54.56
48862;BME280;34681;49.188;-0.374;2023-07-16T06:48:19;101116.59;;;22.96;54.95
48862;BME280;34681;49.188;-0.374;2023-07-16T06:50:44;101121.31;;;22.95;55.17
48862;BME280;34681;49.188;-0.374;2023-07-16T06:53:10;101120.41;;;23.08;54.92
48862;BME280;34681;49.188;-0.374;2023-07-16T06:55:36;101116.75;;;23.08;55.28
48862;BME280;34681;49.188;-0.374;2023-07-16T06:58:02;101119.16;;;23.04;55.48
48862;BME280;34681;49.188;-0.374;2023-07-16T07:00:28;101121.31;;;23.02;55.42
48862;BME280;34681;49.188;-0.374;2023-07-16T07:02:53;101123.66;;;23.05;55.55
48862;BME280;34681;49.188;-0.374;2023-07-16T07:05:19;101117.00;;;23.06;55.67
48862;BME280;34681;49.188;-0.374;2023-07-16T07:07:44;101120.22;;;23.10;55.43
48862;BME280;34681;49.188;-0.374;2023-07-16T07:10:12;101121.28;;;23.09;55.88
48862;BME280;34681;49.188;-0.374;2023-07-16T07:12:37;101120.41;;;23.15;55.65
48862;BME280;34681;49.188;-0.374;2023-07-16T07:15:06;101128.13;;;23.19;55.86
48862;BME280;34681;49.188;-0.374;2023-07-16T07:17:31;101135.19;;;23.15;56.06
48862;BME280;34681;49.188;-0.374;2023-07-16T07:19:56;101142.72;;;23.15;55.65
48862;BME280;34681;49.188;-0.374;2023-07-16T07:22:22;101132.66;;;23.07;56.54
48862;BME280;34681;49.188;-0.374;2023-07-16T07:24:47;101143.81;;;23.14;56.23
48862;BME280;34681;49.188;-0.374;2023-07-16T07:27:12;101141.41;;;23.24;55.89
48862;BME280;34681;49.188;-0.374;2023-07-16T07:29:38;101140.38;;;23.18;55.96
48862;BME280;34681;49.188;-0.374;2023-07-16T07:32:03;101140.13;;;23.26;55.60
48862;BME280;34681;49.188;-0.374;2023-07-16T07:34:29;101146.97;;;23.31;55.61
48862;BME280;34681;49.188;-0.374;2023-07-16T07:36:54;101149.34;;;23.27;55.35
48862;BME280;34681;49.188;-0.374;2023-07-16T07:39:19;101150.84;;;23.23;55.60
48862;BME280;34681;49.188;-0.374;2023-07-16T07:41:45;101157.09;;;23.18;56.05
48862;BME280;34681;49.188;-0.374;2023-07-16T07:44:10;101153.38;;;23.38;54.94
48862;BME280;34681;49.188;-0.374;2023-07-16T07:46:35;101157.06;;;23.25;55.50
48862;BME280;34681;49.188;-0.374;2023-07-16T07:49:00;101162.00;;;23.30;55.49
48862;BME280;34681;49.188;-0.374;2023-07-16T07:51:26;101163.09;;;23.22;55.52
48862;BME280;34681;49.188;-0.374;2023-07-16T07:53:51;101169.28;;;23.31;55.33
48862;BME280;34681;49.188;-0.374;2023-07-16T07:56:17;101163.47;;;23.39;55.06
48862;BME280;34681;49.188;-0.374;2023-07-16T07:58:42;101175.13;;;23.22;55.33
48862;BME280;34681;49.188;-0.374;2023-07-16T08:01:08;101173.00;;;23.18;55.89
48862;BME280;34681;49.188;-0.374;2023-07-16T08:03:34;101173.38;;;23.28;55.86
48862;BME280;34681;49.188;-0.374;2023-07-16T08:06:00;101167.56;;;23.36;55.47
48862;BME280;34681;49.188;-0.374;2023-07-16T08:08:25;101178.25;;;23.46;55.41
48862;BME280;34681;49.188;-0.374;2023-07-16T08:10:50;101178.03;;;23.47;55.02
48862;BME280;34681;49.188;-0.374;2023-07-16T08:13:16;101185.31;;;23.55;54.64
48862;BME280;34681;49.188;-0.374;2023-07-16T08:15:41;101178.66;;;23.63;54.16
48862;BME280;34681;49.188;-0.374;2023-07-16T08:18:06;101177.56;;;23.57;53.91
48862;BME280;34681;49.188;-0.374;2023-07-16T08:20:32;101183.13;;;23.57;53.94
48862;BME280;34681;49.188;-0.374;2023-07-16T08:22:57;101183.13;;;23.57;54.15
48862;BME280;34681;49.188;-0.374;2023-07-16T08:25:23;101185.50;;;23.67;53.55
48862;BME280;34681;49.188;-0.374;2023-07-16T08:27:48;101189.59;;;23.64;53.73
48862;BME280;34681;49.188;-0.374;2023-07-16T08:30:13;101195.53;;;23.74;53.18
48862;BME280;34681;49.188;-0.374;2023-07-16T08:32:39;101194.28;;;23.70;53.17
48862;BME280;34681;49.188;-0.374;2023-07-16T08:35:04;101204.00;;;23.61;52.83
48862;BME280;34681;49.188;-0.374;2023-07-16T08:37:30;101207.88;;;23.60;52.77
48862;BME280;34681;49.188;-0.374;2023-07-16T08:39:55;101200.13;;;23.55;52.79
48862;BME280;34681;49.188;-0.374;2023-07-16T08:42:21;101194.94;;;23.66;52.42
48862;BME280;34681;49.188;-0.374;2023-07-16T08:44:48;101186.78;;;23.64;52.68
48862;BME280;34681;49.188;-0.374;2023-07-16T08:47:15;101205.50;;;23.64;52.56
48862;BME280;34681;49.188;-0.374;2023-07-16T08:49:41;101199.25;;;23.55;52.77
48862;BME280;34681;49.188;-0.374;2023-07-16T08:52:07;101198.81;;;23.65;52.84
48862;BME280;34681;49.188;-0.374;2023-07-16T08:54:33;101198.16;;;23.69;52.91
48862;BME280;34681;49.188;-0.374;2023-07-16T08:56:59;101201.31;;;23.86;52.05
48862;BME280;34681;49.188;-0.374;2023-07-16T08:59:26;101200.09;;;23.69;52.10
48862;BME280;34681;49.188;-0.374;2023-07-16T09:01:52;101196.88;;;23.65;52.55
48862;BME280;34681;49.188;-0.374;2023-07-16T09:04:18;101193.22;;;23.71;52.22
48862;BME280;34681;49.188;-0.374;2023-07-16T09:06:44;101194.91;;;23.72;52.13
48862;BME280;34681;49.188;-0.374;2023-07-16T09:09:22;101184.28;;;23.94;51.44
48862;BME280;34681;49.188;-0.374;2023-07-16T09:11:48;101196.81;;;23.85;51.86
48862;BME280;34681;49.188;-0.374;2023-07-16T09:14:18;101199.59;;;23.85;52.09
48862;BME280;34681;49.188;-0.374;2023-07-16T09:16:50;101197.63;;;23.92;51.37
48862;BME280;34681;49.188;-0.374;2023-07-16T09:19:16;101192.91;;;23.86;51.37
48862;BME280;34681;49.188;-0.374;2023-07-16T09:21:46;101197.88;;;23.84;51.23
48862;BME280;34681;49.188;-0.374;2023-07-16T09:24:12;101197.44;;;23.87;51.33
48862;BME280;34681;49.188;-0.374;2023-07-16T09:26:38;101199.09;;;23.95;51.29
48862;BME280;34681;49.188;-0.374;2023-07-16T09:29:07;101197.19;;;23.89;50.57
48862;BME280;34681;49.188;-0.374;2023-07-16T09:31:33;101202.19;;;23.80;51.05
48862;BME280;34681;49.188;-0.374;2023-07-16T09:33:58;101202.38;;;23.85;50.84
48862;BME280;34681;49.188;-0.374;2023-07-16T09:36:27;101209.84;;;23.91;51.02
48862;BME280;34681;49.188;-0.374;2023-07-16T09:38:57;101215.03;;;23.94;50.69
48862;BME280;34681;49.188;-0.374;2023-07-16T09:41:24;101210.91;;;23.97;50.26
48862;BME280;34681;49.188;-0.374;2023-07-16T09:43:49;101204.97;;;23.87;50.20
48862;BME280;34681;49.188;-0.374;2023-07-16T09:46:15;101202.56;;;23.90;50.41
48862;BME280;34681;49.188;-0.374;2023-07-16T09:48:40;101199.56;;;23.92;50.21
48862;BME280;34681;49.188;-0.374;2023-07-16T09:51:07;101201.22;;;23.99;49.96
48862;BME280;34681;49.188;-0.374;2023-07-16T09:53:32;101199.97;;;23.95;49.50
48862;BME280;34681;49.188;-0.374;2023-07-16T09:55:59;101197.66;;;23.86;50.00
48862;BME280;34681;49.188;-0.374;2023-07-16T09:58:26;101199.56;;;23.92;49.87
48862;BME280;34681;49.188;-0.374;2023-07-16T10:00:52;101199.06;;;24.01;49.33
48862;BME280;34681;49.188;-0.374;2023-07-16T10:03:17;101195.19;;;24.02;49.15
48862;BME280;34681;49.188;-0.374;2023-07-16T10:05:43;101202.50;;;24.03;49.43
48862;BME280;34681;49.188;-0.374;2023-07-16T10:08:17;101195.59;;;24.06;49.15
48862;BME280;34681;49.188;-0.374;2023-07-16T10:10:53;101200.09;;;24.07;48.92
48862;BME280;34681;49.188;-0.374;2023-07-16T10:13:22;101202.50;;;24.03;48.49
48862;BME280;34681;49.188;-0.374;2023-07-16T10:15:58;101199.06;;;24.01;48.49
48862;BME280;34681;49.188;-0.374;2023-07-16T10:18:28;101204.44;;;24.03;48.69
48862;BME280;34681;49.188;-0.374;2023-07-16T10:21:03;101199.44;;;24.12;48.85
48862;BME280;34681;49.188;-0.374;2023-07-16T10:23:41;101205.78;;;24.25;48.61
48862;BME280;34681;49.188;-0.374;2023-07-16T10:26:07;101201.38;;;24.11;48.63
48862;BME280;34681;49.188;-0.374;2023-07-16T10:28:35;101201.75;;;24.15;48.81
48862;BME280;34681;49.188;-0.374;2023-07-16T10:31:01;101184.28;;;24.26;48.67
48862;BME280;34681;49.188;-0.374;2023-07-16T10:33:26;101191.06;;;24.43;48.55
48862;BME280;34681;49.188;-0.374;2023-07-16T10:35:52;101204.00;;;24.37;48.41
48862;BME280;34681;49.188;-0.374;2023-07-16T10:38:17;101215.44;;;24.29;48.01
48862;BME280;34681;49.188;-0.374;2023-07-16T10:40:44;101216.06;;;24.31;47.80
48862;BME280;34681;49.188;-0.374;2023-07-16T10:43:10;101212.44;;;24.24;47.65
48862;BME280;34681;49.188;-0.374;2023-07-16T10:45:35;101215.41;;;24.36;47.62
48862;BME280;34681;49.188;-0.374;2023-07-16T10:48:01;101213.50;;;24.30;47.00
48862;BME280;34681;49.188;-0.374;2023-07-16T10:50:26;101215.47;;;24.23;47.34
48862;BME280;34681;49.188;-0.374;2023-07-16T10:52:55;101218.84;;;24.31;47.40
48862;BME280;34681;49.188;-0.374;2023-07-16T10:55:22;101218.47;;;24.28;46.92
48862;BME280;34681;49.188;-0.374;2023-07-16T10:57:48;101219.13;;;24.23;46.85
48862;BME280;34681;49.188;-0.374;2023-07-16T11:00:22;101214.34;;;24.37;46.60
48862;BME280;34681;49.188;-0.374;2023-07-16T11:02:50;101225.06;;;24.40;46.81
48862;BME280;34681;49.188;-0.374;2023-07-16T11:05:17;101224.28;;;24.33;46.22
48862;BME280;34681;49.188;-0.374;2023-07-16T11:07:48;101224.91;;;24.35;46.45
48862;BME280;34681;49.188;-0.374;2023-07-16T11:10:16;101213.09;;;24.26;46.63
48862;BME280;34681;49.188;-0.374;2023-07-16T11:12:42;101215.69;;;24.21;46.84
48862;BME280;34681;49.188;-0.374;2023-07-16T11:15:08;101221.47;;;24.33;46.37
48862;BME280;34681;49.188;-0.374;2023-07-16T11:17:37;101224.91;;;24.28;46.21
48862;BME280;34681;49.188;-0.374;2023-07-16T11:20:02;101227.06;;;24.33;45.78
48862;BME280;34681;49.188;-0.374;2023-07-16T11:22:29;101235.22;;;24.34;46.08
48862;BME280;34681;49.188;-0.374;2023-07-16T11:24:57;101233.34;;;24.22;46.71
48862;BME280;34681;49.188;-0.374;2023-07-16T11:27:25;101226.25;;;24.19;47.12
48862;BME280;34681;49.188;-0.374;2023-07-16T11:29:55;101227.31;;;24.25;47.17
48862;BME280;34681;49.188;-0.374;2023-07-16T11:35:03;101226.19;;;24.32;47.29
48862;BME280;34681;49.188;-0.374;2023-07-16T11:37:30;101224.66;;;24.30;47.34
48862;BME280;34681;49.188;-0.374;2023-07-16T11:40:01;101220.56;;;24.39;47.26
48862;BME280;34681;49.188;-0.374;2023-07-16T11:44:54;101243.28;;;24.49;46.31
48862;BME280;34681;49.188;-0.374;2023-07-16T11:47:21;101232.56;;;24.46;46.08
48862;BME280;34681;49.188;-0.374;2023-07-16T11:49:47;101233.44;;;24.40;46.03
48862;BME280;34681;49.188;-0.374;2023-07-16T11:52:12;101236.44;;;24.45;45.81
48862;BME280;34681;49.188;-0.374;2023-07-16T11:54:38;101235.84;;;24.30;46.14
48862;BME280;34681;49.188;-0.374;2023-07-16T11:57:03;101228.09;;;24.38;46.20
48862;BME280;34681;49.188;-0.374;2023-07-16T11:59:29;101230.25;;;24.36;46.17
48862;BME280;34681;49.188;-0.374;2023-07-16T12:01:54;101228.94;;;24.39;45.76
48862;BME280;34681;49.188;-0.374;2023-07-16T12:04:20;101225.88;;;24.47;45.92
48862;BME280;34681;49.188;-0.374;2023-07-16T12:06:46;101234.22;;;24.54;45.29
48862;BME280;34681;49.188;-0.374;2023-07-16T12:09:11;101225.63;;;24.49;45.43
48862;BME280;34681;49.188;-0.374;2023-07-16T12:11:37;101229.75;;;24.46;45.61
48862;BME280;34681;49.188;-0.374;2023-07-16T12:14:04;101229.13;;;24.44;45.44
48862;BME280;34681;49.188;-0.374;2023-07-16T12:16:30;101232.28;;;24.54;45.37
48862;BME280;34681;49.188;-0.374;2023-07-16T12:18:56;101234.16;;;24.60;44.86
48862;BME280;34681;49.188;-0.374;2023-07-16T12:21:21;101228.91;;;24.71;44.37
48862;BME280;34681;49.188;-0.374;2023-07-16T12:23:46;101222.56;;;24.57;44.84
48862;BME280;34681;49.188;-0.374;2023-07-16T12:26:12;101236.50;;;24.63;44.68
48862;BME280;34681;49.188;-0.374;2023-07-16T12:28:38;101224.34;;;24.51;44.75
48862;BME280;34681;49.188;-0.374;2023-07-16T12:31:03;101231.88;;;24.51;44.58
48862;BME280;34681;49.188;-0.374;2023-07-16T12:33:28;101234.03;;;24.49;44.71
48862;BME280;34681;49.188;-0.374;2023-07-16T12:35:54;101236.78;;;24.55;44.38
48862;BME280;34681;49.188;-0.374;2023-07-16T12:38:20;101242.41;;;24.49;44.24
48862;BME280;34681;49.188;-0.374;2023-07-16T12:40:46;101240.31;;;24.44;44.29
48862;BME280;34681;49.188;-0.374;2023-07-16T12:43:11;101235.63;;;24.38;44.64